Time,TemperatureF,DewpointF,PressureIn,WindDirection,WindDirectionDegrees,WindSpeedMPH,WindSpeedGustMPH,Humidity,HourlyPrecipIn,Conditions,Clouds,dailyrainin,SoftwareType,DateUTC
2013-10-29 00:01:00,40.5,36.9,30.26,North,0,0.0,0.0,87,0.00,CLR,,0.00,WeatherDisplay:10.37,2013-10-29 04:01:00,
2013-10-29 00:02:00,40.5,36.9,30.26,North,0,0.0,0.0,87,0.00,CLR,,0.00,WeatherDisplay:10.37,2013-10-29 04:02:00,
2013-10-29 00:06:00,40.3,37.0,30.26,North,0,0.0,0.0,88,0.00,CLR,,0.00,WeatherDisplay:10.37,2013-10-29 04:06:00,
2013-10-29 00:10:00,40.3,37.0,30.26,North,0,0.0,0.0,88,0.00,CLR,,0.00,WeatherDisplay:10.37,2013-10-29 04:10:00,
2013-10-29 00:15:00,40.1,36.8,30.26,North,0,0.0,0.0,88,0.00,CLR,,0.00,WeatherDisplay:10.37,2013-10-29 04:15:00,
2013-10-29 00:20:00,39.9,36.9,30.26,North,0,0.0,0.0,89,0.00,CLR,,0.00,WeatherDisplay:10.37,2013-10-29 04:20:00,
2013-10-29 00:25:00,39.9,37.2,30.26,North,0,1.1,0.0,90,0.00,CLR,,0.00,WeatherDisplay:10.37,2013-10-29 04:25:00,
2013-10-29 00:30:00,39.7,37.0,30.26,North,0,0.0,0.0,90,0.00,CLR,,0.00,WeatherDisplay:10.37,2013-10-29 04:30:00,
2013-10-29 00:35:00,39.6,36.9,30.26,North,0,0.0,0.0,90,0.00,CLR,,0.00,WeatherDisplay:10.37,2013-10-29 04:35:00,
2013-10-29 00:40:00,39.6,37.2,30.26,North,0,0.0,0.0,91,0.00,CLR,,0.00,WeatherDisplay:10.37,2013-10-29 04:40:00,
2013-10-29 00:45:00,39.4,37.0,30.26,North,0,0.0,0.0,91,0.00,CLR,,0.00,WeatherDisplay:10.37,2013-10-29 04:45:00,
2013-10-29 00:50:00,39.4,37.0,30.26,North,0,0.0,0.0,91,0.00,CLR,,0.00,WeatherDisplay:10.37,2013-10-29 04:50:00,
2013-10-29 00:55:00,39.6,37.4,30.26,North,0,1.1,0.0,92,0.00,CLR,,0.00,WeatherDisplay:10.37,2013-10-29 04:55:00,
2013-10-29 01:00:00,39.7,37.6,30.27,North,0,0.0,0.0,92,0.00,CLR,,0.00,WeatherDisplay:10.37,2013-10-29 05:00:00,
2013-10-29 01:05:00,39.6,37.2,30.27,North,0,0.0,0.0,91,0.00,CLR,,0.00,WeatherDisplay:10.37,2013-10-29 05:05:00,
2013-10-29 01:10:00,39.7,37.3,30.26,North,0,0.0,0.0,91,0.00,CLR,,0.00,WeatherDisplay:10.37,2013-10-29 05:10:00,
2013-10-29 01:15:00,39.9,37.5,30.26,North,0,0.0,0.0,91,0.00,CLR,,0.00,WeatherDisplay:10.37,2013-10-29 05:15:00,
2013-10-29 01:20:00,39.9,37.5,30.27,North,0,0.0,0.0,91,0.00,CLR,,0.00,WeatherDisplay:10.37,2013-10-29 05:20:00,
2013-10-29 01:25:00,40.1,37.7,30.27,North,0,0.0,0.0,91,0.00,CLR,,0.00,WeatherDisplay:10.37,2013-10-29 05:25:00,
2013-10-29 01:30:00,40.3,37.9,30.27,North,0,0.0,0.0,91,0.00,CLR,,0.00,WeatherDisplay:10.37,2013-10-29 05:30:00,
2013-10-29 01:35:00,40.3,37.6,30.27,North,0,0.0,0.0,90,0.00,CLR,,0.00,WeatherDisplay:10.37,2013-10-29 05:35:00,
2013-10-29 01:40:00,40.3,37.6,30.27,North,0,0.0,0.0,90,0.00,CLR,,0.00,WeatherDisplay:10.37,2013-10-29 05:40:00,
2013-10-29 01:45:00,40.3,37.6,30.27,North,0,0.0,0.0,90,0.00,CLR,,0.00,WeatherDisplay:10.37,2013-10-29 05:45:00,
2013-10-29 01:50:00,40.3,37.6,30.27,North,0,0.0,0.0,90,0.00,CLR,,0.00,WeatherDisplay:10.37,2013-10-29 05:50:00,
2013-10-29 01:55:00,40.1,37.4,30.28,North,0,0.0,0.0,90,0.00,CLR,,0.00,WeatherDisplay:10.37,2013-10-29 05:55:00,
2013-10-29 02:00:00,40.1,37.4,30.28,North,0,0.0,0.0,90,0.00,CLR,,0.00,WeatherDisplay:10.37,2013-10-29 06:00:00,
2013-10-29 02:05:00,39.7,37.0,30.28,North,0,0.0,0.0,90,0.00,BKN,,0.00,WeatherDisplay:10.37,2013-10-29 06:05:00,
2013-10-29 02:10:00,39.4,36.7,30.27,North,0,0.0,0.0,90,0.00,BKN,,0.00,WeatherDisplay:10.37,2013-10-29 06:10:00,
2013-10-29 02:15:00,39.2,36.5,30.28,North,0,0.0,0.0,90,0.00,BKN,,0.00,WeatherDisplay:10.37,2013-10-29 06:15:00,
2013-10-29 02:20:00,39.2,36.8,30.28,North,0,1.1,0.0,91,0.00,BKN,,0.00,WeatherDisplay:10.37,2013-10-29 06:20:00,
2013-10-29 02:25:00,39.0,36.6,30.28,North,0,0.0,0.0,91,0.00,BKN,,0.00,WeatherDisplay:10.37,2013-10-29 06:25:00,
2013-10-29 02:30:00,38.7,36.3,30.28,North,0,0.0,0.0,91,0.00,BKN,,0.00,WeatherDisplay:10.37,2013-10-29 06:30:00,
2013-10-29 02:35:00,38.5,36.1,30.28,North,0,0.0,0.0,91,0.00,BKN,,0.00,WeatherDisplay:10.37,2013-10-29 06:35:00,
2013-10-29 02:40:00,38.3,36.2,30.28,North,0,0.0,0.0,92,0.00,BKN,,0.00,WeatherDisplay:10.37,2013-10-29 06:40:00,
2013-10-29 02:45:00,38.1,36.0,30.28,North,0,0.0,0.0,92,0.00,BKN,,0.00,WeatherDisplay:10.37,2013-10-29 06:45:00,
2013-10-29 02:50:00,38.1,36.0,30.28,North,0,0.0,0.0,92,0.00,BKN,,0.00,WeatherDisplay:10.37,2013-10-29 06:50:00,
2013-10-29 02:55:00,38.1,36.0,30.28,North,0,0.0,0.0,92,0.00,BKN,,0.00,WeatherDisplay:10.37,2013-10-29 06:55:00,
2013-10-29 03:00:00,37.9,36.1,30.28,North,0,0.0,0.0,93,0.00,BKN,,0.00,WeatherDisplay:10.37,2013-10-29 07:00:00,
2013-10-29 03:05:00,37.9,36.1,30.28,North,0,0.0,0.0,93,0.00,BKN,,0.00,WeatherDisplay:10.37,2013-10-29 07:05:00,
2013-10-29 03:10:00,37.8,35.9,30.28,North,0,0.0,0.0,93,0.00,BKN,,0.00,WeatherDisplay:10.37,2013-10-29 07:10:00,
2013-10-29 03:15:00,37.8,36.2,30.29,North,0,0.0,0.0,94,0.00,BKN,,0.00,WeatherDisplay:10.37,2013-10-29 07:15:00,
2013-10-29 03:20:00,37.8,36.2,30.29,North,0,0.0,0.0,94,0.00,BKN,,0.00,WeatherDisplay:10.37,2013-10-29 07:20:00,
2013-10-29 03:25:00,37.8,36.2,30.29,North,0,0.0,0.0,94,0.00,BKN,,0.00,WeatherDisplay:10.37,2013-10-29 07:25:00,
2013-10-29 03:30:00,37.8,36.2,30.29,North,0,0.0,0.0,94,0.00,BKN,,0.00,WeatherDisplay:10.37,2013-10-29 07:30:00,
2013-10-29 03:35:00,37.8,36.2,30.29,North,0,0.0,0.0,94,0.00,BKN,,0.00,WeatherDisplay:10.37,2013-10-29 07:35:00,
2013-10-29 03:40:00,37.8,36.2,30.29,North,0,0.0,0.0,94,0.00,BKN,,0.00,WeatherDisplay:10.37,2013-10-29 07:40:00,
2013-10-29 03:45:00,37.6,36.3,30.29,North,0,0.0,0.0,95,0.00,BKN,,0.00,WeatherDisplay:10.37,2013-10-29 07:45:00,
2013-10-29 03:50:00,37.6,36.3,30.29,North,0,0.0,0.0,95,0.00,BKN,,0.00,WeatherDisplay:10.37,2013-10-29 07:50:00,
2013-10-29 03:55:00,37.2,35.9,30.30,North,0,0.0,0.0,95,0.00,BKN,,0.00,WeatherDisplay:10.37,2013-10-29 07:55:00,
2013-10-29 04:00:00,37.2,36.2,30.30,North,0,0.0,0.0,96,0.00,BKN,,0.00,WeatherDisplay:10.37,2013-10-29 08:00:00,
2013-10-29 04:05:00,37.0,36.0,30.30,North,0,0.0,0.0,96,0.00,SCT,,0.00,WeatherDisplay:10.37,2013-10-29 08:05:00,
2013-10-29 04:10:00,36.9,35.8,30.30,North,0,0.0,0.0,96,0.00,SCT,,0.00,WeatherDisplay:10.37,2013-10-29 08:10:00,
2013-10-29 04:15:00,36.9,35.8,30.30,North,0,0.0,0.0,96,0.00,SCT,,0.00,WeatherDisplay:10.37,2013-10-29 08:15:00,
2013-10-29 04:20:00,36.7,35.6,30.30,North,0,0.0,0.0,96,0.00,SCT,,0.00,WeatherDisplay:10.37,2013-10-29 08:20:00,
2013-10-29 04:25:00,36.7,35.6,30.30,North,0,0.0,0.0,96,0.00,SCT,,0.00,WeatherDisplay:10.37,2013-10-29 08:25:00,
2013-10-29 04:30:00,36.7,35.6,30.30,North,0,0.0,0.0,96,0.00,SCT,,0.00,WeatherDisplay:10.37,2013-10-29 08:30:00,
2013-10-29 04:35:00,36.5,35.5,30.30,North,0,0.0,0.0,96,0.00,SCT,,0.00,WeatherDisplay:10.37,2013-10-29 08:35:00,
2013-10-29 04:40:00,36.5,35.5,30.30,North,0,0.0,0.0,96,0.00,SCT,,0.00,WeatherDisplay:10.37,2013-10-29 08:40:00,
2013-10-29 04:45:00,36.3,35.3,30.30,North,0,0.0,0.0,96,0.00,SCT,,0.00,WeatherDisplay:10.37,2013-10-29 08:45:00,
2013-10-29 04:50:00,36.3,35.3,30.31,North,0,0.0,0.0,96,0.00,SCT,,0.00,WeatherDisplay:10.37,2013-10-29 08:50:00,
2013-10-29 04:55:00,36.3,35.6,30.31,North,0,0.0,0.0,97,0.00,SCT,,0.00,WeatherDisplay:10.37,2013-10-29 08:55:00,
2013-10-29 05:00:00,36.3,35.6,30.31,North,0,0.0,0.0,97,0.00,SCT,,0.00,WeatherDisplay:10.37,2013-10-29 09:00:00,
2013-10-29 05:05:00,36.3,35.6,30.32,North,0,0.0,0.0,97,0.00,FEW,,0.00,WeatherDisplay:10.37,2013-10-29 09:05:00,
2013-10-29 05:10:00,36.3,35.6,30.32,North,0,0.0,0.0,97,0.00,FEW,,0.00,WeatherDisplay:10.37,2013-10-29 09:10:00,
2013-10-29 05:15:00,36.1,35.4,30.32,North,0,0.0,0.0,97,0.00,FEW,,0.00,WeatherDisplay:10.37,2013-10-29 09:15:00,
2013-10-29 05:20:00,36.0,35.2,30.32,North,0,0.0,0.0,97,0.00,FEW,,0.00,WeatherDisplay:10.37,2013-10-29 09:20:00,
2013-10-29 05:25:00,36.0,35.2,30.32,North,0,0.0,0.0,97,0.00,FEW,,0.00,WeatherDisplay:10.37,2013-10-29 09:25:00,
2013-10-29 05:30:00,36.0,35.2,30.32,North,0,0.0,0.0,97,0.00,FEW,,0.00,WeatherDisplay:10.37,2013-10-29 09:30:00,
2013-10-29 05:35:00,35.8,35.0,30.32,North,0,0.0,0.0,97,0.00,FEW,,0.00,WeatherDisplay:10.37,2013-10-29 09:35:00,
2013-10-29 05:40:00,35.6,34.8,30.32,North,0,0.0,0.0,97,0.00,FEW,,0.00,WeatherDisplay:10.37,2013-10-29 09:40:00,
2013-10-29 05:45:00,35.8,35.0,30.32,East,90,1.1,1.1,97,0.00,FEW,,0.00,WeatherDisplay:10.37,2013-10-29 09:45:00,
2013-10-29 05:50:00,35.8,35.0,30.33,East,90,0.0,0.0,97,0.00,FEW,,0.00,WeatherDisplay:10.37,2013-10-29 09:50:00,
2013-10-29 05:55:00,35.8,35.3,30.33,East,90,0.0,0.0,98,0.00,FEW,,0.00,WeatherDisplay:10.37,2013-10-29 09:55:00,
2013-10-29 06:00:00,35.8,35.0,30.34,East,90,0.0,0.0,97,0.00,FEW,,0.00,WeatherDisplay:10.37,2013-10-29 10:00:00,
2013-10-29 06:05:00,35.8,35.3,30.34,East,90,0.0,0.0,98,0.00,CLR,,0.00,WeatherDisplay:10.37,2013-10-29 10:05:00,
2013-10-29 06:10:00,35.6,34.8,30.34,East,90,0.0,0.0,97,0.00,CLR,,0.00,WeatherDisplay:10.37,2013-10-29 10:10:00,
2013-10-29 06:15:00,35.4,34.7,30.34,East,90,0.7,0.0,97,0.00,CLR,,0.00,WeatherDisplay:10.37,2013-10-29 10:15:00,
2013-10-29 06:20:00,35.4,34.9,30.34,East,90,1.1,0.0,98,0.00,CLR,,0.00,WeatherDisplay:10.37,2013-10-29 10:20:00,
2013-10-29 06:25:00,35.2,34.7,30.34,East,90,1.1,0.0,98,0.00,CLR,,0.00,WeatherDisplay:10.37,2013-10-29 10:25:00,
2013-10-29 06:30:00,35.2,34.7,30.34,East,90,0.0,0.0,98,0.00,CLR,,0.00,WeatherDisplay:10.37,2013-10-29 10:30:00,
2013-10-29 06:35:00,35.4,34.9,30.34,East,90,0.0,0.0,98,0.00,CLR,,0.00,WeatherDisplay:10.37,2013-10-29 10:35:00,
2013-10-29 06:40:00,35.4,34.9,30.34,East,90,0.0,0.0,98,0.00,CLR,,0.00,WeatherDisplay:10.37,2013-10-29 10:40:00,
2013-10-29 06:45:00,35.2,34.7,30.34,East,90,0.0,0.0,98,0.00,CLR,,0.00,WeatherDisplay:10.37,2013-10-29 10:45:00,
2013-10-29 06:50:00,35.1,34.6,30.34,East,90,1.1,0.0,98,0.00,CLR,,0.00,WeatherDisplay:10.37,2013-10-29 10:50:00,
2013-10-29 06:55:00,34.9,34.4,30.34,East,90,0.0,0.0,98,0.00,CLR,,0.00,WeatherDisplay:10.37,2013-10-29 10:55:00,
2013-10-29 07:00:00,34.7,34.2,30.34,East,90,0.0,0.0,98,0.00,CLR,,0.00,WeatherDisplay:10.37,2013-10-29 11:00:00,
2013-10-29 07:05:00,34.7,34.2,30.35,East,90,0.0,0.0,98,0.00,CLR,,0.00,WeatherDisplay:10.37,2013-10-29 11:05:00,
2013-10-29 07:10:00,34.7,34.2,30.35,East,90,0.0,0.0,98,0.00,CLR,,0.00,WeatherDisplay:10.37,2013-10-29 11:10:00,
2013-10-29 07:15:00,34.9,34.4,30.35,East,90,0.0,0.0,98,0.00,CLR,,0.00,WeatherDisplay:10.37,2013-10-29 11:15:00,
2013-10-29 07:20:00,34.9,34.6,30.35,East,90,0.0,0.0,99,0.00,CLR,,0.00,WeatherDisplay:10.37,2013-10-29 11:20:00,
2013-10-29 07:25:00,34.9,34.6,30.35,East,90,0.0,0.0,99,0.00,CLR,,0.00,WeatherDisplay:10.37,2013-10-29 11:25:00,
2013-10-29 07:30:00,34.7,34.4,30.35,East,90,0.0,0.0,99,0.00,CLR,,0.00,WeatherDisplay:10.37,2013-10-29 11:30:00,
2013-10-29 07:35:00,34.9,34.6,30.35,East,90,0.0,0.0,99,0.00,CLR,,0.00,WeatherDisplay:10.37,2013-10-29 11:35:00,
2013-10-29 07:40:00,34.9,34.6,30.35,East,90,0.0,0.0,99,0.00,CLR,,0.00,WeatherDisplay:10.37,2013-10-29 11:40:00,
2013-10-29 07:45:00,34.9,34.6,30.35,East,90,0.0,0.0,99,0.00,CLR,,0.00,WeatherDisplay:10.37,2013-10-29 11:45:00,
2013-10-29 07:50:00,35.1,34.8,30.35,West,270,0.0,0.0,99,0.00,CLR,,0.00,WeatherDisplay:10.37,2013-10-29 11:50:00,
2013-10-29 07:55:00,34.9,34.6,30.35,West,270,0.0,0.0,99,0.00,CLR,,0.00,WeatherDisplay:10.37,2013-10-29 11:55:00,
2013-10-29 08:00:00,34.9,34.6,30.36,SE,135,0.0,0.0,99,0.00,CLR,,0.00,WeatherDisplay:10.37,2013-10-29 12:00:00,
2013-10-29 08:05:00,34.9,34.6,30.36,SE,135,0.0,0.0,99,0.00,CLR,,0.00,WeatherDisplay:10.37,2013-10-29 12:05:00,
2013-10-29 08:10:00,35.1,34.8,30.36,SE,135,0.0,0.0,99,0.00,CLR,,0.00,WeatherDisplay:10.37,2013-10-29 12:10:00,
2013-10-29 08:15:00,35.2,35.0,30.36,SE,135,0.0,0.0,99,0.00,CLR,,0.00,WeatherDisplay:10.37,2013-10-29 12:15:00,
2013-10-29 08:20:00,35.2,35.0,30.36,SE,135,0.0,0.0,99,0.00,CLR,,0.00,WeatherDisplay:10.37,2013-10-29 12:20:00,
2013-10-29 08:25:00,35.4,35.2,30.36,SE,135,0.0,0.0,99,0.00,CLR,,0.00,WeatherDisplay:10.37,2013-10-29 12:25:00,
2013-10-29 08:30:00,35.8,35.5,30.36,SW,225,0.0,0.0,99,0.00,CLR,,0.00,WeatherDisplay:10.37,2013-10-29 12:30:00,
2013-10-29 08:35:00,35.8,35.5,30.36,SW,225,0.0,0.0,99,0.00,CLR,,0.00,WeatherDisplay:10.37,2013-10-29 12:35:00,
2013-10-29 08:40:00,36.0,35.7,30.37,SW,225,0.0,0.0,99,0.00,CLR,,0.00,WeatherDisplay:10.37,2013-10-29 12:40:00,
2013-10-29 08:45:00,36.3,36.1,30.36,SW,225,0.0,0.0,99,0.00,CLR,,0.00,WeatherDisplay:10.37,2013-10-29 12:45:00,
2013-10-29 08:50:00,36.7,36.4,30.36,SW,225,0.0,0.0,99,0.00,CLR,,0.00,WeatherDisplay:10.37,2013-10-29 12:50:00,
2013-10-29 08:55:00,37.0,36.8,30.36,SW,225,0.0,0.0,99,0.00,CLR,,0.00,WeatherDisplay:10.37,2013-10-29 12:55:00,
2013-10-29 09:00:00,37.4,37.1,30.37,SW,225,0.0,0.0,99,0.00,CLR,,0.00,WeatherDisplay:10.37,2013-10-29 13:00:00,
2013-10-29 09:05:00,37.9,37.7,30.37,SW,225,0.0,0.0,99,0.00,CLR,,0.00,WeatherDisplay:10.37,2013-10-29 13:05:00,
2013-10-29 09:10:00,38.3,38.0,30.37,SW,225,0.0,0.0,99,0.00,CLR,,0.00,WeatherDisplay:10.37,2013-10-29 13:10:00,
2013-10-29 09:15:00,39.0,38.8,30.38,SW,225,0.0,0.0,99,0.00,CLR,,0.00,WeatherDisplay:10.37,2013-10-29 13:15:00,
2013-10-29 09:20:00,39.6,39.3,30.38,SW,225,0.0,0.0,99,0.00,CLR,,0.00,WeatherDisplay:10.37,2013-10-29 13:20:00,
2013-10-29 09:25:00,42.3,42.0,30.38,SW,225,0.0,0.0,99,0.00,CLR,,0.00,WeatherDisplay:10.37,2013-10-29 13:25:00,
2013-10-29 09:30:00,46.0,45.8,30.38,SW,225,0.0,0.0,99,0.00,CLR,,0.00,WeatherDisplay:10.37,2013-10-29 13:30:00,
2013-10-29 09:35:00,48.7,45.3,30.38,SW,225,0.0,0.0,88,0.00,CLR,,0.00,WeatherDisplay:10.37,2013-10-29 13:35:00,
2013-10-29 09:40:00,49.8,44.5,30.38,SW,225,0.0,0.0,82,0.00,CLR,,0.00,WeatherDisplay:10.37,2013-10-29 13:40:00,
2013-10-29 09:45:00,50.5,44.3,30.38,SW,225,0.0,0.0,79,0.00,CLR,,0.00,WeatherDisplay:10.37,2013-10-29 13:45:00,
2013-10-29 09:50:00,52.3,45.0,30.38,East,90,1.6,1.6,76,0.00,CLR,,0.00,WeatherDisplay:10.37,2013-10-29 13:50:00,
2013-10-29 09:55:00,51.8,42.7,30.38,SE,135,1.1,0.0,71,0.00,CLR,,0.00,WeatherDisplay:10.37,2013-10-29 13:55:00,
2013-10-29 10:00:00,53.1,43.9,30.38,SE,135,0.0,0.0,71,0.00,CLR,,0.00,WeatherDisplay:10.37,2013-10-29 14:00:00,
2013-10-29 10:05:00,53.2,42.2,30.38,West,270,1.6,1.6,66,0.00,CLR,,0.00,WeatherDisplay:10.37,2013-10-29 14:05:00,
2013-10-29 10:10:00,52.3,40.9,30.38,West,270,1.1,0.0,65,0.00,CLR,,0.00,WeatherDisplay:10.37,2013-10-29 14:10:00,
2013-10-29 10:15:00,52.9,41.4,30.38,North,0,1.1,0.0,65,0.00,CLR,,0.00,WeatherDisplay:10.37,2013-10-29 14:15:00,
2013-10-29 10:20:00,53.6,41.3,30.38,ESE,112,3.5,3.5,63,0.00,CLR,,0.00,WeatherDisplay:10.37,2013-10-29 14:20:00,
2013-10-29 10:25:00,51.6,39.8,30.38,West,270,1.1,0.0,64,0.00,CLR,,0.00,WeatherDisplay:10.37,2013-10-29 14:25:00,
2013-10-29 10:30:00,50.2,40.0,30.38,NW,315,3.5,0.0,68,0.00,CLR,,0.00,WeatherDisplay:10.37,2013-10-29 14:30:00,
2013-10-29 10:35:00,52.0,42.1,30.38,West,270,1.1,0.0,69,0.00,CLR,,0.00,WeatherDisplay:10.37,2013-10-29 14:35:00,
2013-10-29 10:40:00,52.5,41.1,30.38,West,270,1.1,0.0,65,0.00,CLR,,0.00,WeatherDisplay:10.37,2013-10-29 14:40:00,
2013-10-29 10:45:00,51.8,40.4,30.38,West,270,1.1,1.1,65,0.00,CLR,,0.00,WeatherDisplay:10.37,2013-10-29 14:45:00,
2013-10-29 10:50:00,50.9,39.9,30.38,NW,315,1.1,0.0,66,0.00,CLR,,0.00,WeatherDisplay:10.37,2013-10-29 14:50:00,
2013-10-29 10:55:00,50.4,39.4,30.38,East,90,3.5,3.5,66,0.00,CLR,,0.00,WeatherDisplay:10.37,2013-10-29 14:55:00,
2013-10-29 11:00:00,50.2,39.6,30.38,East,90,1.1,1.1,67,0.00,CLR,,0.00,WeatherDisplay:10.37,2013-10-29 15:00:00,
2013-10-29 11:05:00,50.4,40.2,30.38,NW,315,5.8,5.8,68,0.00,CLR,,0.00,WeatherDisplay:10.37,2013-10-29 15:05:00,
2013-10-29 11:10:00,50.4,40.2,30.38,North,0,3.5,3.5,68,0.00,CLR,,0.00,WeatherDisplay:10.37,2013-10-29 15:10:00,
2013-10-29 11:15:00,50.5,40.0,30.37,ESE,112,5.8,5.8,67,0.00,CLR,,0.00,WeatherDisplay:10.37,2013-10-29 15:15:00,
2013-10-29 11:20:00,50.9,40.7,30.37,West,270,2.3,2.3,68,0.00,CLR,,0.00,WeatherDisplay:10.37,2013-10-29 15:20:00,
2013-10-29 11:25:00,51.3,40.7,30.37,NE,45,3.5,3.5,67,0.00,CLR,,0.00,WeatherDisplay:10.37,2013-10-29 15:25:00,
2013-10-29 11:30:00,51.4,40.5,30.37,NE,45,2.3,2.3,66,0.00,CLR,,0.00,WeatherDisplay:10.37,2013-10-29 15:30:00,
2013-10-29 11:35:00,51.8,40.4,30.37,East,90,6.9,6.9,65,0.00,CLR,,0.00,WeatherDisplay:10.37,2013-10-29 15:35:00,
2013-10-29 11:40:00,52.0,40.6,30.37,SE,135,3.5,3.5,65,0.00,CLR,,0.00,WeatherDisplay:10.37,2013-10-29 15:40:00,
2013-10-29 11:45:00,52.2,40.3,30.37,SE,135,1.1,0.0,64,0.00,CLR,,0.00,WeatherDisplay:10.37,2013-10-29 15:45:00,
2013-10-29 11:50:00,53.1,41.2,30.37,East,90,2.3,0.0,64,0.00,CLR,,0.00,WeatherDisplay:10.37,2013-10-29 15:50:00,
2013-10-29 11:55:00,53.4,40.7,30.37,North,0,2.3,2.3,62,0.00,CLR,,0.00,WeatherDisplay:10.37,2013-10-29 15:55:00,
2013-10-29 12:00:00,53.4,40.7,30.37,North,0,5.8,0.0,62,0.00,CLR,,0.00,WeatherDisplay:10.37,2013-10-29 16:00:00,
2013-10-29 12:05:00,53.8,40.6,30.36,NW,315,2.3,2.3,61,0.00,CLR,,0.00,WeatherDisplay:10.37,2013-10-29 16:05:00,
2013-10-29 12:10:00,55.2,40.7,30.36,West,270,3.5,3.5,58,0.00,CLR,,0.00,WeatherDisplay:10.37,2013-10-29 16:10:00,
2013-10-29 12:15:00,57.4,42.3,30.36,West,270,1.1,0.0,57,0.00,CLR,,0.00,WeatherDisplay:10.37,2013-10-29 16:15:00,
2013-10-29 12:20:00,59.2,43.0,30.36,South,180,2.3,0.0,55,0.00,CLR,,0.00,WeatherDisplay:10.37,2013-10-29 16:20:00,
2013-10-29 12:25:00,60.6,42.4,30.35,NW,315,2.3,0.0,51,0.00,CLR,,0.00,WeatherDisplay:10.37,2013-10-29 16:25:00,
2013-10-29 12:30:00,60.6,41.9,30.35,West,270,2.3,0.0,50,0.00,CLR,,0.00,WeatherDisplay:10.37,2013-10-29 16:30:00,
2013-10-29 12:35:00,60.3,41.5,30.35,West,270,1.1,0.0,50,0.00,CLR,,0.00,WeatherDisplay:10.37,2013-10-29 16:35:00,
2013-10-29 12:40:00,60.6,41.9,30.35,East,90,3.5,3.5,50,0.00,CLR,,0.00,WeatherDisplay:10.37,2013-10-29 16:40:00,
2013-10-29 12:45:00,60.6,41.9,30.34,West,270,3.5,0.0,50,0.00,CLR,,0.00,WeatherDisplay:10.37,2013-10-29 16:45:00,
2013-10-29 12:50:00,61.7,42.9,30.34,West,270,1.1,1.6,50,0.00,CLR,,0.00,WeatherDisplay:10.37,2013-10-29 16:50:00,
2013-10-29 12:55:00,61.9,42.0,30.34,West,270,1.1,1.1,48,0.00,CLR,,0.00,WeatherDisplay:10.37,2013-10-29 16:55:00,
2013-10-29 13:00:00,61.2,39.6,30.34,West,270,3.5,3.5,45,0.00,CLR,,0.00,WeatherDisplay:10.37,2013-10-29 17:00:00,
2013-10-29 13:05:00,60.8,39.9,30.33,SW,225,2.3,2.3,46,0.00,CLR,,0.00,WeatherDisplay:10.37,2013-10-29 17:05:00,
2013-10-29 13:10:00,61.9,40.9,30.33,West,270,3.5,3.5,46,0.00,CLR,,0.00,WeatherDisplay:10.37,2013-10-29 17:10:00,
2013-10-29 13:15:00,61.9,39.7,30.33,WSW,248,3.5,3.5,44,0.00,CLR,,0.00,WeatherDisplay:10.37,2013-10-29 17:15:00,
2013-10-29 13:20:00,61.2,39.1,30.33,SW,225,3.5,3.5,44,0.00,CLR,,0.00,WeatherDisplay:10.37,2013-10-29 17:20:00,
2013-10-29 13:25:00,61.2,39.1,30.33,West,270,3.5,3.5,44,0.00,CLR,,0.00,WeatherDisplay:10.37,2013-10-29 17:25:00,
2013-10-29 13:30:00,61.3,39.8,30.33,SW,225,2.3,2.3,45,0.00,CLR,,0.00,WeatherDisplay:10.37,2013-10-29 17:30:00,
2013-10-29 13:35:00,62.6,40.9,30.32,West,270,2.3,0.0,45,0.00,CLR,,0.00,WeatherDisplay:10.37,2013-10-29 17:35:00,
2013-10-29 13:40:00,63.5,41.2,30.32,West,270,1.1,1.1,44,0.00,CLR,,0.00,WeatherDisplay:10.37,2013-10-29 17:40:00,
2013-10-29 13:45:00,63.9,40.9,30.32,North,0,3.5,3.5,43,0.00,CLR,,0.00,WeatherDisplay:10.37,2013-10-29 17:45:00,
2013-10-29 13:50:00,62.8,40.5,30.32,SE,135,5.8,5.8,44,0.00,CLR,,0.00,WeatherDisplay:10.37,2013-10-29 17:50:00,
2013-10-29 13:55:00,63.0,40.7,30.31,East,90,3.5,3.5,44,0.00,CLR,,0.00,WeatherDisplay:10.37,2013-10-29 17:55:00,
2013-10-29 14:00:00,63.5,41.2,30.31,West,270,2.3,0.0,44,0.00,CLR,,0.00,WeatherDisplay:10.37,2013-10-29 18:00:00,
2013-10-29 14:05:00,64.2,40.6,30.31,NW,315,3.5,3.5,42,0.00,CLR,,0.00,WeatherDisplay:10.37,2013-10-29 18:05:00,
2013-10-29 14:10:00,63.5,40.0,30.31,SW,225,3.5,3.5,42,0.00,CLR,,0.00,WeatherDisplay:10.37,2013-10-29 18:10:00,
2013-10-29 14:15:00,63.0,40.7,30.31,SW,225,3.5,3.5,44,0.00,CLR,,0.00,WeatherDisplay:10.37,2013-10-29 18:15:00,
2013-10-29 14:20:00,63.7,40.8,30.30,SW,225,1.1,1.1,43,0.00,CLR,,0.00,WeatherDisplay:10.37,2013-10-29 18:20:00,
2013-10-29 14:25:00,64.2,40.6,30.30,NW,315,2.3,2.3,42,0.00,CLR,,0.00,WeatherDisplay:10.37,2013-10-29 18:25:00,
2013-10-29 14:30:00,63.1,39.7,30.30,North,0,3.5,3.5,42,0.00,CLR,,0.00,WeatherDisplay:10.37,2013-10-29 18:30:00,
2013-10-29 14:35:00,62.1,39.9,30.30,West,270,1.1,0.0,44,0.00,CLR,,0.00,WeatherDisplay:10.37,2013-10-29 18:35:00,
2013-10-29 14:40:00,61.2,40.2,30.30,West,270,2.3,0.0,46,0.00,CLR,,0.00,WeatherDisplay:10.37,2013-10-29 18:40:00,
2013-10-29 14:45:00,60.6,39.7,30.30,NW,315,1.1,1.1,46,0.00,CLR,,0.00,WeatherDisplay:10.37,2013-10-29 18:45:00,
2013-10-29 14:50:00,60.6,40.3,30.30,NW,315,1.1,0.0,47,0.00,CLR,,0.00,WeatherDisplay:10.37,2013-10-29 18:50:00,
2013-10-29 14:55:00,60.4,40.1,30.29,North,0,1.1,1.1,47,0.00,CLR,,0.00,WeatherDisplay:10.37,2013-10-29 18:55:00,
2013-10-29 15:00:00,60.3,39.9,30.30,West,270,1.1,0.0,47,0.00,CLR,,0.00,WeatherDisplay:10.37,2013-10-29 19:00:00,
2013-10-29 15:05:00,60.3,41.0,30.29,West,270,2.3,2.3,49,0.00,CLR,,0.00,WeatherDisplay:10.37,2013-10-29 19:05:00,
2013-10-29 15:10:00,60.6,40.3,30.29,West,270,1.1,1.1,47,0.00,CLR,,0.00,WeatherDisplay:10.37,2013-10-29 19:10:00,
2013-10-29 15:15:00,60.4,39.5,30.29,North,0,1.1,1.1,46,0.00,CLR,,0.00,WeatherDisplay:10.37,2013-10-29 19:15:00,
2013-10-29 15:20:00,60.4,40.6,30.30,West,270,1.1,1.1,48,0.00,CLR,,0.00,WeatherDisplay:10.37,2013-10-29 19:20:00,
2013-10-29 15:25:00,60.4,40.6,30.30,NW,315,3.5,0.0,48,0.00,CLR,,0.00,WeatherDisplay:10.37,2013-10-29 19:25:00,
2013-10-29 15:30:00,60.4,40.6,30.30,East,90,3.5,0.0,48,0.00,CLR,,0.00,WeatherDisplay:10.37,2013-10-29 19:30:00,
2013-10-29 15:35:00,60.4,40.1,30.30,West,270,1.1,1.1,47,0.00,CLR,,0.00,WeatherDisplay:10.37,2013-10-29 19:35:00,
2013-10-29 15:40:00,60.4,40.6,30.30,West,270,2.3,2.3,48,0.00,CLR,,0.00,WeatherDisplay:10.37,2013-10-29 19:40:00,
2013-10-29 15:45:00,60.3,40.5,30.29,SW,225,3.5,0.0,48,0.00,CLR,,0.00,WeatherDisplay:10.37,2013-10-29 19:45:00,
2013-10-29 15:50:00,60.3,41.0,30.29,West,270,1.1,1.1,49,0.00,CLR,,0.00,WeatherDisplay:10.37,2013-10-29 19:50:00,
2013-10-29 15:55:00,60.3,40.5,30.29,West,270,1.1,0.0,48,0.00,CLR,,0.00,WeatherDisplay:10.37,2013-10-29 19:55:00,
2013-10-29 16:00:00,60.3,40.5,30.29,SW,225,1.1,1.6,48,0.00,CLR,,0.00,WeatherDisplay:10.37,2013-10-29 20:00:00,
2013-10-29 16:05:00,60.3,39.9,30.29,West,270,2.3,2.3,47,0.00,CLR,,0.00,WeatherDisplay:10.37,2013-10-29 20:05:00,
2013-10-29 16:10:00,60.3,40.5,30.29,North,0,1.1,0.0,48,0.00,CLR,,0.00,WeatherDisplay:10.37,2013-10-29 20:10:00,
2013-10-29 16:15:00,60.3,40.5,30.29,North,0,1.1,0.0,48,0.00,CLR,,0.00,WeatherDisplay:10.37,2013-10-29 20:15:00,
2013-10-29 16:20:00,60.3,39.9,30.29,NE,45,2.3,0.0,47,0.00,CLR,,0.00,WeatherDisplay:10.37,2013-10-29 20:20:00,
2013-10-29 16:25:00,60.3,39.9,30.29,East,90,1.1,0.0,47,0.00,CLR,,0.00,WeatherDisplay:10.37,2013-10-29 20:25:00,
2013-10-29 16:30:00,60.3,39.9,30.29,West,270,1.1,0.0,47,0.00,CLR,,0.00,WeatherDisplay:10.37,2013-10-29 20:30:00,
2013-10-29 16:35:00,60.3,39.9,30.28,East,90,1.6,1.6,47,0.00,CLR,,0.00,WeatherDisplay:10.37,2013-10-29 20:35:00,
2013-10-29 16:40:00,60.3,39.4,30.29,North,0,1.1,0.0,46,0.00,CLR,,0.00,WeatherDisplay:10.37,2013-10-29 20:40:00,
2013-10-29 16:45:00,60.1,39.8,30.28,East,90,1.1,1.1,47,0.00,CLR,,0.00,WeatherDisplay:10.37,2013-10-29 20:45:00,
2013-10-29 16:50:00,60.1,39.8,30.28,East,90,0.0,0.0,47,0.00,CLR,,0.00,WeatherDisplay:10.37,2013-10-29 20:50:00,
2013-10-29 16:55:00,59.9,40.1,30.28,East,90,0.0,0.0,48,0.00,CLR,,0.00,WeatherDisplay:10.37,2013-10-29 20:55:00,
2013-10-29 17:00:00,59.7,40.0,30.28,North,0,0.0,0.0,48,0.00,CLR,,0.00,WeatherDisplay:10.37,2013-10-29 21:00:00,
2013-10-29 17:05:00,59.7,40.5,30.28,East,90,1.1,1.1,49,0.00,CLR,,0.00,WeatherDisplay:10.37,2013-10-29 21:05:00,
2013-10-29 17:10:00,59.5,39.8,30.28,North,0,1.1,0.0,48,0.00,CLR,,0.00,WeatherDisplay:10.37,2013-10-29 21:10:00,
2013-10-29 17:15:00,59.4,40.7,30.28,East,90,1.1,0.0,50,0.00,CLR,,0.00,WeatherDisplay:10.37,2013-10-29 21:15:00,
2013-10-29 17:20:00,59.2,40.5,30.28,East,90,1.1,0.0,50,0.00,CLR,,0.00,WeatherDisplay:10.37,2013-10-29 21:20:00,
2013-10-29 17:25:00,58.8,40.7,30.28,East,90,0.0,0.0,51,0.00,CLR,,0.00,WeatherDisplay:10.37,2013-10-29 21:25:00,
2013-10-29 17:30:00,58.5,40.9,30.28,East,90,0.0,0.0,52,0.00,CLR,,0.00,WeatherDisplay:10.37,2013-10-29 21:30:00,
2013-10-29 17:35:00,58.1,41.0,30.28,East,90,0.0,0.0,53,0.00,CLR,,0.00,WeatherDisplay:10.37,2013-10-29 21:35:00,
2013-10-29 17:40:00,57.6,41.0,30.28,East,90,0.0,0.0,54,0.00,CLR,,0.00,WeatherDisplay:10.37,2013-10-29 21:40:00,
2013-10-29 17:45:00,57.2,41.2,30.28,East,90,0.0,0.0,55,0.00,CLR,,0.00,WeatherDisplay:10.37,2013-10-29 21:45:00,
2013-10-29 17:50:00,57.0,41.0,30.29,East,90,0.0,0.0,55,0.00,CLR,,0.00,WeatherDisplay:10.37,2013-10-29 21:50:00,
2013-10-29 17:55:00,56.3,40.8,30.28,East,90,0.0,0.0,56,0.00,CLR,,0.00,WeatherDisplay:10.37,2013-10-29 21:55:00,
2013-10-29 18:00:00,55.8,41.2,30.28,East,90,0.0,0.0,58,0.00,CLR,,0.00,WeatherDisplay:10.37,2013-10-29 22:00:00,
2013-10-29 18:05:00,55.2,40.7,30.28,East,90,0.0,0.0,58,0.00,CLR,,0.00,WeatherDisplay:10.37,2013-10-29 22:05:00,
2013-10-29 18:10:00,54.9,41.2,30.29,East,90,0.0,0.0,60,0.00,CLR,,0.00,WeatherDisplay:10.37,2013-10-29 22:10:00,
2013-10-29 18:15:00,54.7,41.1,30.29,East,90,2.3,2.3,60,0.00,CLR,,0.00,WeatherDisplay:10.37,2013-10-29 22:15:00,
2013-10-29 18:20:00,54.3,40.7,30.28,East,90,1.1,0.0,60,0.00,CLR,,0.00,WeatherDisplay:10.37,2013-10-29 22:20:00,
2013-10-29 18:25:00,54.3,40.7,30.29,East,90,1.1,0.0,60,0.00,CLR,,0.00,WeatherDisplay:10.37,2013-10-29 22:25:00,
2013-10-29 18:30:00,54.1,40.6,30.28,East,90,1.1,0.0,60,0.00,CLR,,0.00,WeatherDisplay:10.37,2013-10-29 22:30:00,
2013-10-29 18:35:00,54.3,40.3,30.29,East,90,1.1,0.0,59,0.00,CLR,,0.00,WeatherDisplay:10.37,2013-10-29 22:35:00,
2013-10-29 18:40:00,54.0,40.4,30.29,East,90,0.0,0.0,60,0.00,CLR,,0.00,WeatherDisplay:10.37,2013-10-29 22:40:00,
2013-10-29 18:45:00,53.4,40.3,30.29,SE,135,1.1,0.0,61,0.00,CLR,,0.00,WeatherDisplay:10.37,2013-10-29 22:45:00,
2013-10-29 18:50:00,53.1,40.4,30.29,SE,135,1.1,0.0,62,0.00,CLR,,0.00,WeatherDisplay:10.37,2013-10-29 22:50:00,
2013-10-29 18:55:00,52.7,40.0,30.29,East,90,0.0,0.0,62,0.00,CLR,,0.00,WeatherDisplay:10.37,2013-10-29 22:55:00,
2013-10-29 19:00:00,52.3,40.5,30.30,East,90,0.0,0.0,64,0.00,CLR,,0.00,WeatherDisplay:10.37,2013-10-29 23:00:00,
2013-10-29 19:05:00,52.0,40.6,30.30,East,90,0.0,0.0,65,0.00,CLR,,0.00,WeatherDisplay:10.37,2013-10-29 23:05:00,
2013-10-29 19:10:00,51.3,40.7,30.30,East,90,1.1,0.0,67,0.00,CLR,,0.00,WeatherDisplay:10.37,2013-10-29 23:10:00,
2013-10-29 19:15:00,51.1,40.9,30.30,East,90,1.1,0.0,68,0.00,CLR,,0.00,WeatherDisplay:10.37,2013-10-29 23:15:00,
2013-10-29 19:20:00,51.1,40.9,30.30,East,90,0.0,0.0,68,0.00,CLR,,0.00,WeatherDisplay:10.37,2013-10-29 23:20:00,
2013-10-29 19:25:00,50.9,41.1,30.30,North,0,0.0,0.0,69,0.00,CLR,,0.00,WeatherDisplay:10.37,2013-10-29 23:25:00,
2013-10-29 19:30:00,50.7,40.9,30.30,North,0,0.0,0.0,69,0.00,CLR,,0.00,WeatherDisplay:10.37,2013-10-29 23:30:00,
2013-10-29 19:35:00,50.5,40.7,30.30,North,0,0.0,0.0,69,0.00,CLR,,0.00,WeatherDisplay:10.37,2013-10-29 23:35:00,
2013-10-29 19:40:00,50.4,40.6,30.30,North,0,0.0,0.0,69,0.00,CLR,,0.00,WeatherDisplay:10.37,2013-10-29 23:40:00,
2013-10-29 19:45:00,50.2,40.8,30.30,North,0,0.0,0.0,70,0.00,CLR,,0.00,WeatherDisplay:10.37,2013-10-29 23:45:00,
2013-10-29 19:50:00,50.0,41.0,30.30,North,0,0.0,0.0,71,0.00,CLR,,0.00,WeatherDisplay:10.37,2013-10-29 23:50:00,
2013-10-29 19:55:00,50.2,41.1,30.30,East,90,1.1,0.0,71,0.00,CLR,,0.00,WeatherDisplay:10.37,2013-10-29 23:55:00,
2013-10-29 20:00:00,50.4,41.3,30.30,East,90,1.1,0.0,71,0.00,CLR,,0.00,WeatherDisplay:10.37,2013-10-30 00:00:00,
2013-10-29 20:05:00,50.2,41.1,30.30,East,90,0.0,0.0,71,0.00,CLR,,0.00,WeatherDisplay:10.37,2013-10-30 00:05:00,
2013-10-29 20:10:00,49.8,41.2,30.30,East,90,0.0,0.0,72,0.00,CLR,,0.00,WeatherDisplay:10.37,2013-10-30 00:10:00,
2013-10-29 20:15:00,49.3,41.3,30.30,East,90,0.0,0.0,74,0.00,CLR,,0.00,WeatherDisplay:10.37,2013-10-30 00:15:00,
2013-10-29 20:20:00,49.1,41.2,30.30,East,90,0.0,0.0,74,0.00,CLR,,0.00,WeatherDisplay:10.37,2013-10-30 00:20:00,
2013-10-29 20:25:00,48.9,41.3,30.30,East,90,0.0,0.0,75,0.00,CLR,,0.00,WeatherDisplay:10.37,2013-10-30 00:25:00,
2013-10-29 20:30:00,48.7,41.2,30.30,East,90,0.0,0.0,75,0.00,CLR,,0.00,WeatherDisplay:10.37,2013-10-30 00:30:00,
2013-10-29 20:35:00,48.6,41.0,30.30,East,90,0.0,0.0,75,0.00,CLR,,0.00,WeatherDisplay:10.37,2013-10-30 00:35:00,
2013-10-29 20:40:00,48.4,41.2,30.30,East,90,0.0,0.0,76,0.00,CLR,,0.00,WeatherDisplay:10.37,2013-10-30 00:40:00,
2013-10-29 20:45:00,48.0,41.2,30.30,East,90,0.0,0.0,77,0.00,CLR,,0.00,WeatherDisplay:10.37,2013-10-30 00:45:00,
2013-10-29 20:50:00,48.0,41.5,30.30,East,90,1.1,0.0,78,0.00,CLR,,0.00,WeatherDisplay:10.37,2013-10-30 00:50:00,
2013-10-29 20:55:00,48.0,41.5,30.30,East,90,0.0,0.0,78,0.00,CLR,,0.00,WeatherDisplay:10.37,2013-10-30 00:55:00,
2013-10-29 21:00:00,47.8,41.6,30.30,East,90,0.0,0.0,79,0.00,CLR,,0.00,WeatherDisplay:10.37,2013-10-30 01:00:00,
2013-10-29 21:05:00,47.7,41.8,30.31,East,90,1.1,0.0,80,0.00,CLR,,0.00,WeatherDisplay:10.37,2013-10-30 01:05:00,
2013-10-29 21:10:00,47.5,41.6,30.31,East,90,0.0,0.0,80,0.00,CLR,,0.00,WeatherDisplay:10.37,2013-10-30 01:10:00,
2013-10-29 21:15:00,47.5,41.6,30.31,East,90,0.0,0.0,80,0.00,CLR,,0.00,WeatherDisplay:10.37,2013-10-30 01:15:00,
2013-10-29 21:20:00,47.5,41.3,30.31,East,90,0.0,0.0,79,0.00,CLR,,0.00,WeatherDisplay:10.37,2013-10-30 01:20:00,
2013-10-29 21:25:00,47.7,41.8,30.31,East,90,0.0,0.0,80,0.00,CLR,,0.00,WeatherDisplay:10.37,2013-10-30 01:25:00,
2013-10-29 21:30:00,47.8,42.0,30.31,East,90,0.0,0.0,80,0.00,CLR,,0.00,WeatherDisplay:10.37,2013-10-30 01:30:00,
2013-10-29 21:35:00,48.2,42.0,30.30,East,90,0.0,0.0,79,0.00,CLR,,0.00,WeatherDisplay:10.37,2013-10-30 01:35:00,
2013-10-29 21:40:00,48.2,42.3,30.31,East,90,0.0,0.0,80,0.00,CLR,,0.00,WeatherDisplay:10.37,2013-10-30 01:40:00,
2013-10-29 21:45:00,48.2,42.0,30.30,East,90,0.0,0.0,79,0.00,CLR,,0.00,WeatherDisplay:10.37,2013-10-30 01:45:00,
2013-10-29 21:50:00,48.0,42.1,30.30,East,90,0.0,0.0,80,0.00,CLR,,0.00,WeatherDisplay:10.37,2013-10-30 01:50:00,
2013-10-29 21:55:00,47.8,42.0,30.30,East,90,0.0,0.0,80,0.00,CLR,,0.00,WeatherDisplay:10.37,2013-10-30 01:55:00,
2013-10-29 22:00:00,47.7,42.1,30.31,East,90,0.0,0.0,81,0.00,CLR,,0.00,WeatherDisplay:10.37,2013-10-30 02:00:00,
2013-10-29 22:05:00,47.7,42.1,30.31,East,90,0.0,0.0,81,0.00,CLR,,0.00,WeatherDisplay:10.37,2013-10-30 02:05:00,
2013-10-29 22:10:00,47.5,42.3,30.30,East,90,0.0,0.0,82,0.00,CLR,,0.00,WeatherDisplay:10.37,2013-10-30 02:10:00,
2013-10-29 22:15:00,47.5,42.3,30.31,East,90,0.0,0.0,82,0.00,CLR,,0.00,WeatherDisplay:10.37,2013-10-30 02:15:00,
2013-10-29 22:20:00,47.7,42.8,30.31,North,0,0.0,0.0,83,0.00,CLR,,0.00,WeatherDisplay:10.37,2013-10-30 02:20:00,
2013-10-29 22:25:00,47.7,42.4,30.31,North,0,0.0,0.0,82,0.00,CLR,,0.00,WeatherDisplay:10.37,2013-10-30 02:25:00,
2013-10-29 22:30:00,47.8,42.6,30.31,North,0,0.0,0.0,82,0.00,CLR,,0.00,WeatherDisplay:10.37,2013-10-30 02:30:00,
2013-10-29 22:35:00,47.8,42.6,30.31,North,0,0.0,0.0,82,0.00,CLR,,0.00,WeatherDisplay:10.37,2013-10-30 02:35:00,
2013-10-29 22:40:00,47.8,42.3,30.31,North,0,0.0,0.0,81,0.00,CLR,,0.00,WeatherDisplay:10.37,2013-10-30 02:40:00,
2013-10-29 22:45:00,47.7,42.4,30.30,North,0,1.1,0.0,82,0.00,CLR,,0.00,WeatherDisplay:10.37,2013-10-30 02:45:00,
2013-10-29 22:50:00,47.3,42.4,30.30,North,0,0.0,0.0,83,0.00,CLR,,0.00,WeatherDisplay:10.37,2013-10-30 02:50:00,
2013-10-29 22:55:00,46.9,42.0,30.30,North,0,0.0,0.0,83,0.00,CLR,,0.00,WeatherDisplay:10.37,2013-10-30 02:55:00,
2013-10-29 23:00:00,46.8,41.9,30.31,SW,225,1.1,0.0,83,0.00,CLR,,0.00,WeatherDisplay:10.37,2013-10-30 03:00:00,
2013-10-29 23:05:00,46.6,42.0,30.31,SW,225,0.0,0.0,84,0.00,CLR,,0.00,WeatherDisplay:10.37,2013-10-30 03:05:00,
2013-10-29 23:10:00,46.4,41.8,30.31,SW,225,0.0,0.0,84,0.00,CLR,,0.00,WeatherDisplay:10.37,2013-10-30 03:10:00,
2013-10-29 23:15:00,46.4,41.8,30.30,SW,225,0.0,0.0,84,0.00,CLR,,0.00,WeatherDisplay:10.37,2013-10-30 03:15:00,
2013-10-29 23:20:00,46.2,41.7,30.31,SW,225,0.0,0.0,84,0.00,CLR,,0.00,WeatherDisplay:10.37,2013-10-30 03:20:00,
2013-10-29 23:25:00,46.4,41.8,30.30,SW,225,0.0,0.0,84,0.00,CLR,,0.00,WeatherDisplay:10.37,2013-10-30 03:25:00,
2013-10-29 23:30:00,46.4,41.8,30.30,SW,225,0.0,0.0,84,0.00,CLR,,0.00,WeatherDisplay:10.37,2013-10-30 03:30:00,
2013-10-29 23:35:00,46.4,41.8,30.29,SW,225,0.0,0.0,84,0.00,CLR,,0.00,WeatherDisplay:10.37,2013-10-30 03:35:00,
2013-10-29 23:40:00,46.6,42.3,30.29,SW,225,0.0,0.0,85,0.00,CLR,,0.00,WeatherDisplay:10.37,2013-10-30 03:40:00,
2013-10-29 23:45:00,46.6,42.3,30.29,SW,225,0.0,0.0,85,0.00,CLR,,0.00,WeatherDisplay:10.37,2013-10-30 03:45:00,
2013-10-29 23:50:00,46.6,42.3,30.29,SW,225,0.0,0.0,85,0.00,CLR,,0.00,WeatherDisplay:10.37,2013-10-30 03:50:00,
2013-10-29 23:55:00,46.6,42.3,30.29,SW,225,0.0,0.0,85,0.00,CLR,,0.00,WeatherDisplay:10.37,2013-10-30 03:55:00,